createdAt,value
2022-12-18T00:00:00.797Z,3.2
2022-12-18T00:01:00.718Z,3.2
2022-12-18T00:02:00.841Z,3.2
2022-12-18T00:03:00.909Z,3.2
2022-12-18T00:04:00.886Z,3.2
2022-12-18T00:05:00.841Z,3.2
2022-12-18T00:06:00.815Z,3.2
2022-12-18T00:07:00.755Z,3.1
2022-12-18T00:08:00.725Z,3.1
2022-12-18T00:09:00.695Z,3.1
2022-12-18T00:10:00.745Z,3.1
2022-12-18T00:11:00.917Z,3.0
2022-12-18T00:13:02.649Z,2.9
2022-12-18T00:14:00.754Z,2.9
2022-12-18T00:15:00.684Z,2.8
2022-12-18T00:16:00.790Z,2.8
2022-12-18T00:17:00.859Z,2.7
2022-12-18T00:18:00.714Z,2.7
2022-12-18T00:19:00.716Z,2.6
2022-12-18T00:20:00.778Z,2.5
2022-12-18T00:21:00.808Z,2.5
2022-12-18T00:22:00.700Z,2.5
2022-12-18T00:23:00.978Z,2.4
2022-12-18T00:24:00.773Z,2.4
2022-12-18T00:25:00.748Z,2.3
2022-12-18T00:26:00.769Z,2.3
2022-12-18T00:27:00.881Z,2.3
2022-12-18T00:28:00.717Z,2.3
2022-12-18T00:29:00.865Z,2.2
2022-12-18T00:30:00.713Z,2.2
2022-12-18T00:31:00.721Z,2.2
2022-12-18T00:32:00.806Z,2.3
2022-12-18T00:33:00.712Z,2.3
2022-12-18T00:34:00.690Z,2.3
2022-12-18T00:35:00.863Z,2.3
2022-12-18T00:36:00.686Z,2.3
2022-12-18T00:37:00.693Z,2.3
2022-12-18T00:38:00.715Z,2.3
2022-12-18T00:39:00.747Z,2.3
2022-12-18T00:40:00.721Z,2.3
2022-12-18T00:41:00.841Z,2.2
2022-12-18T00:42:00.871Z,2.2
2022-12-18T00:43:00.690Z,2.2
2022-12-18T00:44:00.743Z,2.2
2022-12-18T00:45:00.716Z,2.2
2022-12-18T00:46:00.775Z,2.2
2022-12-18T00:47:00.925Z,2.2
2022-12-18T00:48:00.712Z,2.2
2022-12-18T00:49:00.794Z,2.2
2022-12-18T00:50:00.682Z,2.2
2022-12-18T00:51:00.684Z,2.2
2022-12-18T00:52:00.732Z,2.2
2022-12-18T00:53:00.827Z,2.2
2022-12-18T00:54:00.733Z,2.2
2022-12-18T00:55:06.016Z,2.2
2022-12-18T00:56:00.744Z,2.2
2022-12-18T00:57:00.901Z,2.2
2022-12-18T00:58:00.776Z,2.2
2022-12-18T00:59:00.890Z,2.2
2022-12-18T01:00:00.825Z,2.2
2022-12-18T01:01:00.879Z,2.2
2022-12-18T01:02:00.964Z,2.1
2022-12-18T01:03:01.001Z,2.1
2022-12-18T01:04:00.689Z,2.1
2022-12-18T01:05:00.837Z,2.1
2022-12-18T01:06:00.711Z,2.1
2022-12-18T01:07:00.744Z,2.0
2022-12-18T01:08:00.747Z,2.0
2022-12-18T01:09:00.690Z,2.0
2022-12-18T01:10:00.723Z,2.0
2022-12-18T01:11:00.866Z,2.0
2022-12-18T01:12:00.801Z,2.0
2022-12-18T01:13:00.714Z,1.9
2022-12-18T01:14:00.682Z,1.9
2022-12-18T01:15:00.719Z,1.9
2022-12-18T01:16:00.756Z,1.9
2022-12-18T01:17:00.907Z,1.9
2022-12-18T01:18:00.714Z,1.9
2022-12-18T01:19:00.747Z,1.9
2022-12-18T01:20:00.720Z,1.9
2022-12-18T01:21:00.683Z,1.9
2022-12-18T01:22:00.746Z,1.9
2022-12-18T01:23:01.015Z,1.9
2022-12-18T01:24:00.713Z,1.9
2022-12-18T01:25:00.688Z,1.9
2022-12-18T01:26:00.708Z,1.9
2022-12-18T01:27:00.881Z,1.9
2022-12-18T01:28:00.792Z,1.9
2022-12-18T01:29:00.943Z,2.0
2022-12-18T01:30:00.777Z,2.0
2022-12-18T01:31:00.712Z,2.0
2022-12-18T01:32:00.803Z,1.9
2022-12-18T01:33:00.775Z,1.9
2022-12-18T01:34:00.789Z,1.9
2022-12-18T01:35:00.844Z,1.9
2022-12-18T01:36:00.818Z,1.9
2022-12-18T01:37:00.737Z,1.9
2022-12-18T01:38:00.746Z,1.9
2022-12-18T01:39:00.720Z,1.9
2022-12-18T01:40:00.715Z,1.9
2022-12-18T01:41:00.882Z,1.9
2022-12-18T01:42:00.886Z,1.9
2022-12-18T01:43:00.687Z,1.9
2022-12-18T01:44:00.757Z,1.9
2022-12-18T01:45:00.735Z,1.9
2022-12-18T01:46:00.758Z,1.9
2022-12-18T01:47:00.818Z,1.9
2022-12-18T01:48:00.715Z,1.9
2022-12-18T01:49:00.716Z,1.9
2022-12-18T01:50:00.741Z,1.9
2022-12-18T01:51:00.777Z,1.9
2022-12-18T01:52:00.763Z,1.9
2022-12-18T01:53:00.877Z,1.9
2022-12-18T01:54:00.778Z,1.9
2022-12-18T01:55:00.714Z,1.9
2022-12-18T01:56:00.717Z,1.9
2022-12-18T01:57:00.893Z,1.9
2022-12-18T01:58:00.723Z,1.9
2022-12-18T01:59:00.844Z,1.9
2022-12-18T02:00:00.688Z,1.9
2022-12-18T02:01:00.784Z,1.9
2022-12-18T02:02:00.990Z,2.0
2022-12-18T02:03:00.780Z,2.0
2022-12-18T02:04:00.744Z,2.0
2022-12-18T02:05:00.929Z,2.0
2022-12-18T02:06:00.765Z,2.0
2022-12-18T02:07:00.797Z,2.1
2022-12-18T02:08:00.694Z,2.1
2022-12-18T02:09:00.746Z,2.1
2022-12-18T02:10:00.816Z,2.1
2022-12-18T02:11:00.896Z,2.1
2022-12-18T02:12:00.832Z,2.1
2022-12-18T02:13:00.884Z,2.1
2022-12-18T02:14:00.755Z,2.1
2022-12-18T02:15:00.722Z,2.2
2022-12-18T02:16:00.715Z,2.2
2022-12-18T02:17:01.071Z,2.2
2022-12-18T02:18:00.756Z,2.2
2022-12-18T02:19:00.688Z,2.2
2022-12-18T02:20:00.745Z,2.2
2022-12-18T02:21:00.684Z,2.2
2022-12-18T02:22:00.721Z,2.2
2022-12-18T02:23:00.936Z,2.2
2022-12-18T02:24:00.747Z,2.1
2022-12-18T02:25:00.750Z,2.2
2022-12-18T02:26:00.692Z,2.1
2022-12-18T02:27:00.719Z,2.1
2022-12-18T02:28:00.866Z,2.1
2022-12-18T02:29:00.839Z,2.1
2022-12-18T02:30:00.717Z,2.1
2022-12-18T02:31:00.785Z,2.1
2022-12-18T02:32:00.714Z,2.1
2022-12-18T02:33:00.736Z,2.0
2022-12-18T02:34:00.743Z,2.0
2022-12-18T02:35:00.899Z,2.0
2022-12-18T02:36:00.698Z,2.0
2022-12-18T02:37:00.744Z,2.0
2022-12-18T02:38:00.750Z,2.0
2022-12-18T02:39:00.737Z,2.0
2022-12-18T02:40:00.725Z,2.0
2022-12-18T02:41:01.069Z,2.0
2022-12-18T02:42:00.724Z,2.0
2022-12-18T02:43:00.719Z,2.0
2022-12-18T02:44:00.908Z,2.0
2022-12-18T02:45:00.745Z,2.0
2022-12-18T02:46:00.852Z,2.0
2022-12-18T02:47:00.815Z,2.0
2022-12-18T02:48:00.683Z,2.0
2022-12-18T02:49:00.767Z,2.0
2022-12-18T02:50:00.786Z,2.0
2022-12-18T02:51:00.742Z,2.0
2022-12-18T02:52:00.761Z,2.0
2022-12-18T02:53:00.870Z,2.0
2022-12-18T02:54:00.749Z,2.0
2022-12-18T02:55:00.690Z,2.1
2022-12-18T02:56:00.747Z,2.1
2022-12-18T02:57:00.763Z,2.1
2022-12-18T02:58:00.726Z,2.1
2022-12-18T02:59:00.880Z,2.1
2022-12-18T03:00:00.740Z,2.1
2022-12-18T03:01:00.799Z,2.1
2022-12-18T03:02:00.898Z,2.1
2022-12-18T03:03:00.849Z,2.1
2022-12-18T03:04:00.750Z,2.1
2022-12-18T03:05:00.891Z,2.1
2022-12-18T03:06:00.721Z,2.1
2022-12-18T03:07:00.686Z,2.1
2022-12-18T03:08:00.739Z,2.1
2022-12-18T03:09:00.687Z,2.1
2022-12-18T03:10:00.735Z,2.1
2022-12-18T03:11:00.875Z,2.1
2022-12-18T03:12:00.741Z,2.1
2022-12-18T03:13:00.714Z,2.1
2022-12-18T03:14:00.804Z,2.1
2022-12-18T03:15:00.716Z,2.1
2022-12-18T03:16:00.693Z,2.1
2022-12-18T03:17:00.911Z,2.1
2022-12-18T03:18:00.729Z,2.0
2022-12-18T03:19:00.715Z,2.0
2022-12-18T03:20:00.816Z,1.9
2022-12-18T03:21:00.725Z,1.9
2022-12-18T03:22:00.721Z,1.9
2022-12-18T03:23:01.002Z,1.9
2022-12-18T03:24:00.717Z,1.8
2022-12-18T03:25:00.689Z,1.8
2022-12-18T03:26:05.842Z,1.8
2022-12-18T03:27:00.749Z,1.8
2022-12-18T03:28:00.687Z,1.8
2022-12-18T03:29:00.909Z,1.8
2022-12-18T03:30:00.797Z,1.8
2022-12-18T03:31:00.757Z,1.7
2022-12-18T03:32:00.699Z,1.7
2022-12-18T03:33:00.735Z,1.6
2022-12-18T03:34:00.690Z,1.6
2022-12-18T03:35:00.836Z,1.6
2022-12-18T03:36:00.714Z,1.5
2022-12-18T03:37:00.729Z,1.5
2022-12-18T03:38:00.745Z,1.5
2022-12-18T03:39:00.756Z,1.5
2022-12-18T03:40:00.703Z,1.5
2022-12-18T03:41:00.878Z,1.5
2022-12-18T03:42:00.747Z,1.4
2022-12-18T03:43:00.755Z,1.4
2022-12-18T03:44:00.735Z,1.4
2022-12-18T03:45:00.949Z,1.4
2022-12-18T03:46:00.879Z,1.4
2022-12-18T03:47:00.938Z,1.4
2022-12-18T03:48:00.761Z,1.3
2022-12-18T03:49:00.774Z,1.3
2022-12-18T03:50:00.759Z,1.3
2022-12-18T03:51:00.824Z,1.3
2022-12-18T03:52:00.854Z,1.2
2022-12-18T03:53:00.883Z,1.2
2022-12-18T03:54:00.795Z,1.2
2022-12-18T03:55:00.731Z,1.2
2022-12-18T03:56:00.723Z,1.2
2022-12-18T03:57:00.772Z,1.2
2022-12-18T03:58:00.697Z,1.3
2022-12-18T03:59:00.911Z,1.3
2022-12-18T04:00:00.746Z,1.3
2022-12-18T04:01:00.887Z,1.3
2022-12-18T04:02:00.967Z,1.3
2022-12-18T04:03:00.734Z,1.3
2022-12-18T04:04:00.711Z,1.3
2022-12-18T04:05:00.874Z,1.3
2022-12-18T04:06:00.752Z,1.4
2022-12-18T04:07:00.756Z,1.3
2022-12-18T04:08:00.715Z,1.4
2022-12-18T04:09:00.801Z,1.3
2022-12-18T04:10:00.762Z,1.4
2022-12-18T04:11:00.870Z,1.3
2022-12-18T04:12:00.717Z,1.4
2022-12-18T04:13:00.838Z,1.4
2022-12-18T04:14:02.731Z,1.4
2022-12-18T04:15:00.747Z,1.3
2022-12-18T04:16:00.990Z,1.4
2022-12-18T04:17:00.809Z,1.4
2022-12-18T04:18:00.750Z,1.4
2022-12-18T04:19:00.712Z,1.4
2022-12-18T04:20:00.714Z,1.4
2022-12-18T04:21:00.742Z,1.4
2022-12-18T04:22:00.694Z,1.4
2022-12-18T04:23:00.909Z,1.4
2022-12-18T04:24:00.719Z,1.4
2022-12-18T04:25:00.735Z,1.5
2022-12-18T04:26:00.717Z,1.4
2022-12-18T04:27:00.754Z,1.4
2022-12-18T04:28:00.718Z,1.4
2022-12-18T04:29:00.880Z,1.4
2022-12-18T04:30:00.761Z,1.4
2022-12-18T04:31:00.819Z,1.4
2022-12-18T04:32:00.760Z,1.4
2022-12-18T04:33:00.774Z,1.4
2022-12-18T04:34:00.777Z,1.4
2022-12-18T04:35:00.854Z,1.4
2022-12-18T04:36:00.774Z,1.4
2022-12-18T04:37:00.744Z,1.4
2022-12-18T04:38:00.772Z,1.4
2022-12-18T04:39:00.729Z,1.4
2022-12-18T04:40:00.815Z,1.4
2022-12-18T04:41:00.955Z,1.4
2022-12-18T04:42:00.688Z,1.5
2022-12-18T04:43:00.811Z,1.5
2022-12-18T04:44:00.782Z,1.5
2022-12-18T04:45:00.818Z,1.5
2022-12-18T04:46:00.899Z,1.6
2022-12-18T04:47:00.821Z,1.6
2022-12-18T04:48:00.743Z,1.7
2022-12-18T04:49:00.721Z,1.7
2022-12-18T04:50:00.764Z,1.7
2022-12-18T04:51:00.737Z,1.7
2022-12-18T04:52:00.720Z,1.7
2022-12-18T04:53:00.904Z,1.7
2022-12-18T04:54:00.716Z,1.8
2022-12-18T04:55:00.719Z,1.8
2022-12-18T04:56:00.741Z,1.9
2022-12-18T04:57:00.745Z,1.9
2022-12-18T04:58:00.731Z,1.9
2022-12-18T04:59:00.895Z,1.9
2022-12-18T05:00:00.765Z,1.9
2022-12-18T05:01:00.840Z,1.9
2022-12-18T05:02:00.859Z,1.9
2022-12-18T05:03:00.818Z,2.0
2022-12-18T05:04:00.743Z,2.0
2022-12-18T05:05:00.898Z,2.0
2022-12-18T05:06:00.702Z,2.0
2022-12-18T05:07:00.725Z,2.1
2022-12-18T05:08:00.799Z,2.1
2022-12-18T05:09:00.805Z,2.2
2022-12-18T05:10:00.792Z,2.2
2022-12-18T05:11:00.897Z,2.3
2022-12-18T05:12:00.732Z,2.4
2022-12-18T05:13:01.288Z,2.4
2022-12-18T05:14:00.821Z,2.4
2022-12-18T05:15:00.704Z,2.4
2022-12-18T05:16:01.210Z,2.5
2022-12-18T05:17:01.412Z,2.5
2022-12-18T05:18:00.802Z,2.5
2022-12-18T05:19:00.729Z,2.5
2022-12-18T05:20:00.686Z,2.5
2022-12-18T05:21:00.685Z,2.5
2022-12-18T05:22:00.701Z,2.6
2022-12-18T05:23:00.864Z,2.6
2022-12-18T05:24:00.687Z,2.5
2022-12-18T05:25:00.736Z,2.5
2022-12-18T05:26:00.716Z,2.6
2022-12-18T05:27:00.714Z,2.6
2022-12-18T05:28:00.715Z,2.6
2022-12-18T05:29:00.847Z,2.7
2022-12-18T05:30:00.720Z,2.7
2022-12-18T05:31:00.899Z,2.7
2022-12-18T05:32:00.744Z,2.7
2022-12-18T05:33:00.725Z,2.8
2022-12-18T05:34:00.749Z,2.9
2022-12-18T05:35:00.825Z,2.9
2022-12-18T05:36:00.700Z,3.0
2022-12-18T05:37:00.738Z,3.2
2022-12-18T05:38:00.759Z,3.5
2022-12-18T05:39:00.685Z,3.8
2022-12-18T05:40:00.758Z,4.0
2022-12-18T05:41:00.974Z,4.1
2022-12-18T05:42:00.764Z,4.1
2022-12-18T05:43:00.694Z,4.2
2022-12-18T05:44:00.688Z,4.4
2022-12-18T05:45:00.754Z,4.6
2022-12-18T05:46:01.041Z,4.8
2022-12-18T05:47:01.021Z,5.2
2022-12-18T05:48:00.790Z,6.0
2022-12-18T05:49:00.808Z,6.9
2022-12-18T05:50:00.829Z,7.5
2022-12-18T05:51:00.696Z,7.5
2022-12-18T05:52:00.763Z,7.8
2022-12-18T05:53:00.967Z,7.5
2022-12-18T05:54:00.755Z,7.0
2022-12-18T05:55:00.688Z,6.6
2022-12-18T05:56:00.715Z,6.3
2022-12-18T05:57:00.746Z,6.0
2022-12-18T05:58:00.765Z,5.7
2022-12-18T05:59:00.928Z,5.5
2022-12-18T06:00:00.721Z,5.3
2022-12-18T06:01:00.844Z,5.0
2022-12-18T06:02:00.857Z,4.8
2022-12-18T06:03:00.841Z,4.7
2022-12-18T06:04:00.794Z,4.5
2022-12-18T06:05:00.907Z,4.4
2022-12-18T06:06:00.825Z,4.4
2022-12-18T06:07:00.745Z,4.3
2022-12-18T06:08:00.860Z,4.3
2022-12-18T06:09:00.746Z,4.2
2022-12-18T06:10:00.823Z,4.2
2022-12-18T06:11:01.004Z,4.2
2022-12-18T06:12:00.689Z,4.1
2022-12-18T06:13:00.705Z,4.1
2022-12-18T06:14:00.823Z,4.1
2022-12-18T06:15:00.701Z,4.1
2022-12-18T06:16:00.998Z,4.1
2022-12-18T06:17:00.931Z,4.1
2022-12-18T06:18:00.732Z,4.2
2022-12-18T06:19:00.824Z,4.2
2022-12-18T06:20:00.743Z,4.2
2022-12-18T06:21:00.897Z,4.2
2022-12-18T06:22:00.785Z,4.1
2022-12-18T06:23:01.072Z,4.2
2022-12-18T06:24:00.746Z,4.2
2022-12-18T06:25:00.704Z,4.2
2022-12-18T06:26:00.793Z,4.3
2022-12-18T06:27:00.721Z,4.3
2022-12-18T06:28:00.768Z,4.4
2022-12-18T06:29:00.920Z,4.4
2022-12-18T06:30:00.721Z,4.5
2022-12-18T06:31:00.894Z,4.6
2022-12-18T06:32:00.767Z,4.6
2022-12-18T06:33:00.754Z,4.6
2022-12-18T06:34:00.768Z,4.7
2022-12-18T06:35:00.986Z,4.7
2022-12-18T06:36:01.292Z,4.7
2022-12-18T06:37:00.784Z,4.7
2022-12-18T06:38:00.727Z,4.6
2022-12-18T06:39:00.768Z,4.6
2022-12-18T06:40:00.830Z,4.5
2022-12-18T06:41:01.006Z,4.5
2022-12-18T06:42:00.805Z,4.6
2022-12-18T06:43:00.715Z,4.6
2022-12-18T06:44:00.867Z,4.5
2022-12-18T06:45:00.727Z,4.5
2022-12-18T06:46:01.113Z,4.4
2022-12-18T06:47:00.883Z,4.4
2022-12-18T06:48:00.902Z,4.4
2022-12-18T06:49:00.855Z,4.4
2022-12-18T06:50:00.973Z,4.4
2022-12-18T06:51:00.833Z,4.4
2022-12-18T06:52:00.807Z,4.4
2022-12-18T06:53:01.179Z,4.4
2022-12-18T06:54:01.179Z,4.5
2022-12-18T06:55:01.003Z,4.6
2022-12-18T06:56:05.105Z,4.6
2022-12-18T06:57:01.034Z,4.7
2022-12-18T06:58:00.835Z,4.6
2022-12-18T06:59:00.917Z,4.5
2022-12-18T07:00:00.863Z,4.6
2022-12-18T07:01:00.914Z,4.6
2022-12-18T07:02:00.825Z,4.7
2022-12-18T07:03:00.785Z,4.8
2022-12-18T07:04:00.743Z,5.0
2022-12-18T07:05:02.017Z,5.1
2022-12-18T07:06:00.719Z,5.3
2022-12-18T07:07:00.751Z,5.4
2022-12-18T07:08:00.740Z,5.4
2022-12-18T07:09:01.761Z,5.4
2022-12-18T07:10:00.720Z,5.4
2022-12-18T07:11:00.877Z,5.5
2022-12-18T07:12:00.773Z,5.6
2022-12-18T07:13:00.772Z,5.6
2022-12-18T07:14:00.749Z,5.6
2022-12-18T07:15:00.762Z,5.6
2022-12-18T07:16:00.882Z,5.6
2022-12-18T07:17:00.861Z,5.6
2022-12-18T07:18:00.693Z,5.5
2022-12-18T07:19:00.741Z,5.4
2022-12-18T07:20:00.717Z,5.5
2022-12-18T07:21:00.699Z,5.6
2022-12-18T07:22:00.721Z,5.7
2022-12-18T07:23:00.825Z,5.8
2022-12-18T07:24:00.714Z,5.9
2022-12-18T07:25:00.793Z,5.9
2022-12-18T07:26:00.720Z,5.9
2022-12-18T07:27:00.821Z,5.9
2022-12-18T07:28:00.805Z,5.8
2022-12-18T07:29:00.920Z,5.7
2022-12-18T07:30:00.884Z,5.7
2022-12-18T07:31:00.892Z,5.9
2022-12-18T07:32:02.087Z,6.2
2022-12-18T07:33:00.728Z,6.4
2022-12-18T07:34:00.730Z,6.5
2022-12-18T07:35:00.933Z,6.5
2022-12-18T07:36:00.746Z,6.6
2022-12-18T07:37:00.723Z,6.6
2022-12-18T07:38:00.762Z,6.6
2022-12-18T07:39:00.723Z,6.7
2022-12-18T07:40:00.736Z,6.9
2022-12-18T07:41:00.892Z,7.1
2022-12-18T07:42:00.714Z,7.2
2022-12-18T07:43:00.745Z,7.3
2022-12-18T07:44:00.721Z,7.3
2022-12-18T07:45:00.720Z,7.2
2022-12-18T07:46:00.800Z,6.9
2022-12-18T07:47:00.869Z,6.6
2022-12-18T07:48:00.877Z,6.7
2022-12-18T07:49:00.722Z,6.9
2022-12-18T07:50:00.720Z,6.9
2022-12-18T07:51:00.718Z,7.0
2022-12-18T07:52:00.683Z,7.2
2022-12-18T07:53:00.875Z,7.4
2022-12-18T07:54:00.724Z,7.4
2022-12-18T07:55:00.711Z,7.6
2022-12-18T07:56:26.082Z,7.6
2022-12-18T07:57:00.719Z,7.5
2022-12-18T07:58:01.253Z,7.5
2022-12-18T07:59:00.946Z,7.5
2022-12-18T08:00:00.728Z,7.6
2022-12-18T08:01:00.899Z,7.6
2022-12-18T08:02:00.871Z,7.6
2022-12-18T08:03:01.001Z,7.6
2022-12-18T08:04:00.941Z,7.8
2022-12-18T08:05:00.960Z,8.1
2022-12-18T08:06:00.720Z,8.4
2022-12-18T08:07:00.719Z,8.6
2022-12-18T08:08:00.761Z,8.8
2022-12-18T08:09:00.749Z,8.9
2022-12-18T08:10:00.738Z,9.0
2022-12-18T08:11:00.898Z,9.1
2022-12-18T08:12:00.694Z,9.1
2022-12-18T08:13:04.944Z,9.1
2022-12-18T08:14:00.751Z,9.1
2022-12-18T08:15:00.824Z,9.1
2022-12-18T08:16:00.859Z,9.2
2022-12-18T08:17:00.967Z,9.1
2022-12-18T08:18:00.765Z,9.0
2022-12-18T08:19:01.010Z,9.1
2022-12-18T08:20:00.698Z,9.2
2022-12-18T08:21:00.958Z,9.2
2022-12-18T08:22:00.849Z,9.1
2022-12-18T08:23:01.085Z,9.3
2022-12-18T08:24:00.720Z,10.6
2022-12-18T08:25:00.759Z,13.2
2022-12-18T08:26:00.753Z,15.0
2022-12-18T08:27:28.457Z,16.1
2022-12-18T08:28:00.723Z,17.1
2022-12-18T08:29:00.964Z,18.4
2022-12-18T08:30:00.779Z,19.4
2022-12-18T08:31:00.749Z,20.0
2022-12-18T08:32:00.822Z,20.3
2022-12-18T08:33:00.704Z,20.7
2022-12-18T08:34:00.894Z,21.0
2022-12-18T08:35:00.883Z,21.1
2022-12-18T08:36:00.757Z,21.1
2022-12-18T08:37:00.738Z,21.4
2022-12-18T08:38:00.714Z,21.3
2022-12-18T08:39:00.984Z,21.2
2022-12-18T08:40:00.784Z,20.6
2022-12-18T08:41:01.012Z,20.1
2022-12-18T08:42:04.155Z,19.4
2022-12-18T08:43:00.756Z,19.1
2022-12-18T08:44:00.804Z,18.9
2022-12-18T08:45:00.921Z,18.6
2022-12-18T08:46:00.802Z,17.5
2022-12-18T08:47:00.923Z,17.5
2022-12-18T08:48:00.734Z,17.7
2022-12-18T08:49:00.868Z,17.1
2022-12-18T08:50:00.790Z,16.4
2022-12-18T08:51:00.763Z,15.8
2022-12-18T08:52:00.783Z,15.2
2022-12-18T08:53:00.963Z,14.2
2022-12-18T08:54:00.722Z,13.0
2022-12-18T08:55:01.135Z,12.3
2022-12-18T08:56:01.122Z,11.7
2022-12-18T08:57:00.967Z,11.3
2022-12-18T08:58:01.154Z,10.9
2022-12-18T08:59:01.161Z,10.5
2022-12-18T09:00:01.018Z,10.0
2022-12-18T09:01:00.911Z,9.8
2022-12-18T09:02:01.299Z,9.9
2022-12-18T09:03:01.137Z,9.8
2022-12-18T09:04:01.174Z,9.6
2022-12-18T09:05:01.104Z,9.7
2022-12-18T09:06:00.774Z,9.8
2022-12-18T09:07:00.737Z,10.2
2022-12-18T09:08:00.729Z,10.5
2022-12-18T09:09:00.724Z,10.7
2022-12-18T09:10:00.747Z,10.7
2022-12-18T09:11:00.896Z,10.5
2022-12-18T09:12:00.751Z,10.5
2022-12-18T09:13:00.849Z,10.5
2022-12-18T09:14:00.698Z,10.8
2022-12-18T09:15:00.814Z,11.3
2022-12-18T09:16:00.842Z,11.5
2022-12-18T09:17:00.975Z,11.4
2022-12-18T09:18:00.741Z,11.2
2022-12-18T09:19:01.026Z,11.1
2022-12-18T09:20:00.708Z,10.9
2022-12-18T09:21:00.804Z,11.6
2022-12-18T09:22:00.758Z,11.9
2022-12-18T09:23:00.929Z,12.8
2022-12-18T09:24:00.713Z,14.3
2022-12-18T09:25:00.804Z,13.8
2022-12-18T09:26:00.708Z,14.0
2022-12-18T09:27:00.703Z,15.4
2022-12-18T09:28:00.878Z,17.1
2022-12-18T09:29:00.944Z,18.6
2022-12-18T09:30:00.809Z,19.5
2022-12-18T09:31:00.857Z,20.0
2022-12-18T09:32:00.701Z,20.5
2022-12-18T09:33:00.797Z,21.1
2022-12-18T09:34:00.926Z,21.9
2022-12-18T09:35:00.838Z,22.5
2022-12-18T09:36:00.830Z,22.6
2022-12-18T09:37:00.914Z,23.0
2022-12-18T09:38:00.805Z,23.3
2022-12-18T09:39:04.965Z,23.4
2022-12-18T09:40:00.812Z,23.3
2022-12-18T09:41:00.854Z,23.1
2022-12-18T09:42:00.776Z,23.2
2022-12-18T09:43:00.715Z,23.6
2022-12-18T09:44:00.702Z,24.2
2022-12-18T09:45:00.778Z,24.3
2022-12-18T09:46:00.828Z,24.2
2022-12-18T09:47:00.859Z,24.0
2022-12-18T09:48:00.740Z,23.8
2022-12-18T09:49:00.869Z,23.5
2022-12-18T09:50:00.700Z,23.2
2022-12-18T09:51:00.699Z,23.0
2022-12-18T09:52:00.771Z,23.0
2022-12-18T09:53:01.120Z,23.0
2022-12-18T09:54:00.714Z,23.3
2022-12-18T09:55:00.849Z,23.8
2022-12-18T09:56:00.879Z,24.0
2022-12-18T09:57:00.985Z,24.1
2022-12-18T09:58:00.746Z,24.4
2022-12-18T09:59:00.933Z,24.6
2022-12-18T10:00:00.772Z,24.8
2022-12-18T10:01:00.701Z,24.9
2022-12-18T10:02:00.865Z,25.0
2022-12-18T10:03:00.876Z,25.0
2022-12-18T10:04:00.980Z,25.1
2022-12-18T10:05:00.863Z,24.8
2022-12-18T10:06:00.740Z,24.5
2022-12-18T10:07:05.662Z,24.3
2022-12-18T10:08:00.778Z,24.3
2022-12-18T10:09:00.713Z,24.5
2022-12-18T10:10:00.686Z,24.8
2022-12-18T10:11:00.844Z,25.0
2022-12-18T10:12:00.816Z,25.2
2022-12-18T10:13:04.537Z,25.2
2022-12-18T10:14:00.723Z,25.1
2022-12-18T10:15:00.732Z,25.2
2022-12-18T10:16:00.823Z,25.2
2022-12-18T10:17:00.914Z,24.9
2022-12-18T10:18:00.832Z,24.4
2022-12-18T10:19:01.026Z,23.9
2022-12-18T10:20:00.887Z,23.5
2022-12-18T10:21:00.735Z,23.3
2022-12-18T10:22:00.794Z,23.3
2022-12-18T10:23:01.106Z,23.4
2022-12-18T10:24:00.716Z,23.5
2022-12-18T10:25:00.776Z,23.7
2022-12-18T10:26:00.850Z,23.8
2022-12-18T10:27:00.701Z,23.8
2022-12-18T10:28:00.795Z,23.9
2022-12-18T10:29:05.527Z,24.0
2022-12-18T10:30:00.737Z,24.1
2022-12-18T10:31:00.923Z,24.0
2022-12-18T10:32:00.685Z,23.8
2022-12-18T10:33:00.792Z,23.7
2022-12-18T10:34:00.975Z,23.6
2022-12-18T10:35:01.231Z,23.5
2022-12-18T10:36:00.715Z,23.3
2022-12-18T10:37:00.768Z,23.1
2022-12-18T10:38:00.747Z,22.8
2022-12-18T10:39:00.717Z,22.4
2022-12-18T10:40:00.728Z,22.0
2022-12-18T10:41:00.883Z,21.6
2022-12-18T10:42:00.748Z,21.6
2022-12-18T10:43:00.711Z,21.3
2022-12-18T10:44:00.702Z,20.9
2022-12-18T10:45:00.812Z,21.1
2022-12-18T10:46:00.820Z,21.2
2022-12-18T10:47:00.882Z,21.0
2022-12-18T10:48:00.859Z,20.8
2022-12-18T10:49:01.178Z,20.3
2022-12-18T10:50:00.712Z,20.0
2022-12-18T10:51:10.854Z,19.9
2022-12-18T10:52:00.799Z,19.8
2022-12-18T10:53:01.083Z,19.6
2022-12-18T10:54:00.765Z,19.2
2022-12-18T10:55:00.821Z,19.1
2022-12-18T10:56:00.767Z,19.2
2022-12-18T10:59:00.933Z,19.3
2022-12-18T11:00:00.722Z,19.2
2022-12-18T11:01:00.757Z,19.1
2022-12-18T11:02:00.954Z,18.8
2022-12-18T11:03:00.949Z,18.1
2022-12-18T11:04:02.583Z,17.0
2022-12-18T11:05:01.017Z,16.1
2022-12-18T11:06:00.709Z,15.9
2022-12-18T11:07:00.743Z,15.6
2022-12-18T11:08:01.075Z,14.5
2022-12-18T11:09:00.743Z,14.2
2022-12-18T11:10:00.822Z,13.8
2022-12-18T11:11:01.160Z,13.3
2022-12-18T11:12:00.858Z,12.5
2022-12-18T11:13:00.830Z,11.8
2022-12-18T11:14:00.815Z,11.1
2022-12-18T11:15:00.809Z,10.6
2022-12-18T11:16:00.910Z,10.1
2022-12-18T11:17:25.309Z,9.8
2022-12-18T11:18:00.750Z,9.7
2022-12-18T11:19:00.762Z,9.6
2022-12-18T11:20:00.887Z,9.5
2022-12-18T11:21:00.775Z,9.5
2022-12-18T11:22:00.773Z,9.4
2022-12-18T11:23:00.884Z,9.3
2022-12-18T11:24:00.727Z,9.2
2022-12-18T11:25:33.383Z,9.2
2022-12-18T11:26:00.754Z,9.1
2022-12-18T11:27:00.742Z,9.2
2022-12-18T11:28:00.851Z,9.2
2022-12-18T11:29:01.111Z,9.1
2022-12-18T11:30:00.717Z,9.1
2022-12-18T11:31:00.740Z,8.9
2022-12-18T11:32:00.722Z,8.8
2022-12-18T11:33:00.821Z,8.8
2022-12-18T11:34:27.321Z,8.8
2022-12-18T11:35:01.420Z,8.8
2022-12-18T11:36:00.856Z,8.7
2022-12-18T11:37:01.148Z,8.7
2022-12-18T11:38:00.795Z,8.7
2022-12-18T11:39:00.971Z,8.6
2022-12-18T11:40:00.852Z,8.4
2022-12-18T11:41:01.337Z,8.4
2022-12-18T11:42:01.104Z,8.2
2022-12-18T11:43:01.024Z,8.1
2022-12-18T11:44:00.784Z,8.0
2022-12-18T11:45:00.998Z,7.9
2022-12-18T11:46:01.058Z,7.8
2022-12-18T11:47:01.425Z,7.8
2022-12-18T11:48:00.850Z,7.9
2022-12-18T11:49:01.019Z,7.9
2022-12-18T11:50:01.387Z,7.9
2022-12-18T11:51:00.853Z,8.0
2022-12-18T11:52:00.727Z,8.0
2022-12-18T11:53:05.810Z,8.1
2022-12-18T11:54:01.058Z,8.0
2022-12-18T11:55:00.821Z,7.9
2022-12-18T11:56:00.818Z,7.8
2022-12-18T11:57:00.929Z,7.8
2022-12-18T11:58:00.849Z,7.7
2022-12-18T11:59:00.936Z,7.6
2022-12-18T12:00:00.766Z,7.6
2022-12-18T12:01:00.780Z,7.6
2022-12-18T12:02:00.916Z,7.6
2022-12-18T12:03:00.818Z,7.5
2022-12-18T12:04:00.994Z,7.4
2022-12-18T12:05:01.024Z,7.3
2022-12-18T12:06:00.918Z,7.2
2022-12-18T12:07:03.340Z,7.0
2022-12-18T12:08:00.793Z,6.9
2022-12-18T12:09:00.887Z,6.8
2022-12-18T12:10:00.748Z,6.8
2022-12-18T12:11:00.889Z,6.8
2022-12-18T12:12:00.730Z,6.8
2022-12-18T12:13:00.767Z,6.8
2022-12-18T12:14:00.776Z,6.8
2022-12-18T12:15:00.772Z,6.8
2022-12-18T12:16:00.872Z,6.9
2022-12-18T12:17:00.970Z,6.8
2022-12-18T12:18:00.798Z,6.8
2022-12-18T12:19:00.841Z,6.7
2022-12-18T12:20:00.895Z,6.6
2022-12-18T12:21:00.921Z,6.6
2022-12-18T12:22:00.977Z,6.7
2022-12-18T12:23:00.876Z,6.7
2022-12-18T12:24:00.691Z,6.7
2022-12-18T12:25:00.752Z,6.7
2022-12-18T12:26:00.822Z,6.6
2022-12-18T12:27:00.726Z,6.5
2022-12-18T12:28:00.783Z,6.5
2022-12-18T12:29:00.976Z,6.5
2022-12-18T12:30:00.805Z,6.4
2022-12-18T12:31:00.912Z,6.4
2022-12-18T12:32:00.907Z,6.4
2022-12-18T12:33:00.706Z,6.3
2022-12-18T12:34:00.741Z,6.2
2022-12-18T12:35:04.722Z,6.1
2022-12-18T12:36:00.851Z,6.0
2022-12-18T12:37:01.078Z,5.9
2022-12-18T12:38:00.807Z,5.8
2022-12-18T12:39:00.790Z,5.7
2022-12-18T12:40:07.304Z,5.6
2022-12-18T12:41:03.473Z,5.5
2022-12-18T12:42:00.722Z,5.5
2022-12-18T12:43:00.890Z,5.5
2022-12-18T12:44:00.747Z,5.4
2022-12-18T12:45:00.790Z,5.4
2022-12-18T12:46:01.026Z,5.4
2022-12-18T12:47:01.017Z,5.4
2022-12-18T12:48:00.737Z,5.4
2022-12-18T12:49:00.797Z,5.4
2022-12-18T12:50:00.935Z,5.4
2022-12-18T12:51:00.805Z,5.4
2022-12-18T12:52:01.096Z,5.4
2022-12-18T12:53:01.345Z,5.4
2022-12-18T12:54:00.811Z,5.3
2022-12-18T12:55:00.924Z,5.3
2022-12-18T12:56:00.823Z,5.3
2022-12-18T12:57:00.746Z,5.3
2022-12-18T12:58:00.800Z,5.3
2022-12-18T12:59:01.098Z,5.2
2022-12-18T13:00:00.884Z,5.2
2022-12-18T13:01:00.772Z,5.1
2022-12-18T13:02:01.222Z,5.1
2022-12-18T13:03:00.980Z,5.0
2022-12-18T13:04:00.844Z,5.0
2022-12-18T13:05:01.024Z,5.0
2022-12-18T13:06:00.930Z,4.9
2022-12-18T13:07:00.995Z,4.9
2022-12-18T13:08:01.028Z,4.9
2022-12-18T13:09:00.777Z,4.8
2022-12-18T13:10:00.810Z,4.8
2022-12-18T13:11:01.025Z,4.7
2022-12-18T13:12:00.816Z,4.7
2022-12-18T13:13:00.796Z,4.6
2022-12-18T13:14:00.703Z,4.6
2022-12-18T13:15:00.804Z,4.6
2022-12-18T13:16:00.970Z,4.5
2022-12-18T13:17:00.895Z,4.5
2022-12-18T13:18:00.726Z,4.5
2022-12-18T13:19:00.736Z,4.5
2022-12-18T13:20:00.776Z,4.5
2022-12-18T13:21:03.304Z,4.4
2022-12-18T13:22:00.768Z,4.4
2022-12-18T13:23:01.032Z,4.4
2022-12-18T13:24:00.745Z,4.4
2022-12-18T13:25:00.725Z,4.4
2022-12-18T13:26:00.776Z,4.3
2022-12-18T13:27:00.772Z,4.3
2022-12-18T13:28:00.748Z,4.2
2022-12-18T13:29:00.854Z,4.1
2022-12-18T13:30:00.834Z,4.1
2022-12-18T13:31:00.809Z,4.1
2022-12-18T13:32:00.778Z,4.1
2022-12-18T13:33:00.695Z,4.0
2022-12-18T13:35:00.919Z,4.0
2022-12-18T13:36:00.763Z,4.0
2022-12-18T13:37:00.753Z,4.0
2022-12-18T13:38:00.958Z,3.9
2022-12-18T13:39:00.784Z,3.9
2022-12-18T13:40:00.793Z,3.9
2022-12-18T13:41:01.076Z,3.9
2022-12-18T13:42:00.727Z,3.8
2022-12-18T13:43:00.813Z,3.8
2022-12-18T13:44:00.746Z,3.8